createdAt,value
2019-04-06T00:05:55.518Z,98419.56
2019-04-06T00:12:00.136Z,98415.43
2019-04-06T00:18:04.731Z,98417.92
2019-04-06T00:24:09.329Z,98420.23
2019-04-06T00:30:15.110Z,98416.79
2019-04-06T00:36:19.849Z,98417.19
2019-04-06T00:42:24.433Z,98421.97
2019-04-06T00:48:29.043Z,98419.81
2019-04-06T00:54:33.654Z,98410.22
2019-04-06T01:00:38.421Z,98404.41
2019-04-06T01:06:43.083Z,98405.41
2019-04-06T01:12:47.832Z,98409.20
2019-04-06T01:18:52.516Z,98420.04
2019-04-06T01:24:57.129Z,98427.00
2019-04-06T01:31:01.733Z,98423.43
2019-04-06T01:37:06.631Z,98424.06
2019-04-06T01:43:11.283Z,98419.28
2019-04-06T01:49:15.869Z,98413.55
2019-04-06T01:55:20.467Z,98412.48
2019-04-06T02:01:42.809Z,98415.33
2019-04-06T02:07:48.175Z,98414.41
2019-04-06T02:13:52.811Z,98416.89
2019-04-06T02:19:57.421Z,98416.48
2019-04-06T02:26:02.031Z,98414.66
2019-04-06T02:32:06.378Z,98420.34
2019-04-06T02:38:19.492Z,98423.28
2019-04-06T02:44:24.151Z,98415.37
2019-04-06T02:50:28.815Z,98415.92
2019-04-06T02:56:45.040Z,98406.13
2019-04-06T03:02:39.848Z,98415.80
2019-04-06T03:08:44.434Z,98401.61
2019-04-06T03:14:49.028Z,98400.77
2019-04-06T03:20:53.767Z,98402.30
2019-04-06T03:27:02.653Z,98399.27
2019-04-06T03:33:06.281Z,98390.55
2019-04-06T03:39:10.950Z,98394.94
2019-04-06T03:45:16.016Z,98396.42
2019-04-06T03:51:20.716Z,98404.09
2019-04-06T03:57:25.354Z,98407.36
2019-04-06T04:03:29.905Z,98410.36
2019-04-06T04:09:34.453Z,98417.72
2019-04-06T04:15:39.296Z,98419.23
2019-04-06T04:21:43.995Z,98418.45
2019-04-06T04:27:48.581Z,98412.58
2019-04-06T04:33:53.249Z,98423.21
2019-04-06T04:39:57.898Z,98426.11
2019-04-06T04:46:02.441Z,98423.91
2019-04-06T04:52:07.060Z,98427.59
2019-04-06T04:58:11.631Z,98439.61
2019-04-06T05:04:16.270Z,98437.20
2019-04-06T05:10:20.832Z,98440.63
2019-04-06T05:16:25.614Z,98447.20
2019-04-06T05:22:30.165Z,98456.22
2019-04-06T05:28:34.903Z,98454.11
2019-04-06T05:34:39.441Z,98464.73
2019-04-06T05:40:43.994Z,98460.16
2019-04-06T05:46:48.626Z,98467.67
2019-04-06T05:52:53.244Z,98468.13
2019-04-06T05:58:57.797Z,98484.27
2019-04-06T06:05:02.381Z,98485.81
2019-04-06T06:11:07.013Z,98492.91
2019-04-06T06:17:11.587Z,98498.50
2019-04-06T06:23:16.113Z,98494.03
2019-04-06T06:29:20.733Z,98488.55
2019-04-06T06:35:25.371Z,98484.35
2019-04-06T06:41:29.995Z,98492.98
2019-04-06T06:47:34.531Z,98493.32
2019-04-06T06:53:39.271Z,98495.25
2019-04-06T06:59:43.833Z,98493.91
2019-04-06T07:05:48.668Z,98486.33
2019-04-06T07:11:53.355Z,98483.77
2019-04-06T07:17:57.907Z,98490.74
2019-04-06T07:24:02.453Z,98493.03
2019-04-06T07:30:08.540Z,98495.41
2019-04-06T07:36:13.157Z,98494.03
2019-04-06T07:42:17.710Z,98501.22
2019-04-06T07:48:22.342Z,98490.99
2019-04-06T07:54:27.021Z,98496.11
2019-04-06T08:00:31.652Z,98491.67
2019-04-06T08:06:36.197Z,98497.08
2019-04-06T08:12:40.766Z,98503.02
2019-04-06T08:18:45.315Z,98494.69
2019-04-06T08:24:49.861Z,98486.61
2019-04-06T08:30:54.569Z,98492.05
2019-04-06T08:36:59.181Z,98491.34
2019-04-06T08:43:03.735Z,98489.05
2019-04-06T08:49:08.380Z,98500.94
2019-04-06T08:55:13.335Z,98503.50
2019-04-06T09:01:17.982Z,98505.58
2019-04-06T09:07:22.547Z,98509.36
2019-04-06T09:13:28.613Z,98504.16
2019-04-06T09:19:33.187Z,98501.99
2019-04-06T09:25:37.743Z,98496.38
2019-04-06T09:31:42.310Z,98495.86
2019-04-06T09:37:46.898Z,98492.61
2019-04-06T09:43:51.473Z,98496.72
2019-04-06T09:50:09.472Z,98484.17
2019-04-06T09:56:13.812Z,98481.63
2019-04-06T10:02:38.216Z,98472.88
2019-04-06T10:08:56.695Z,98462.37
2019-04-06T10:15:17.755Z,98456.73
2019-04-06T10:21:37.314Z,98447.14
2019-04-06T10:27:49.580Z,98439.97
2019-04-06T10:33:58.599Z,98433.23
2019-04-06T10:40:05.232Z,98427.97
2019-04-06T10:46:11.605Z,98425.03
2019-04-06T10:52:24.082Z,98422.00
2019-04-06T10:58:30.301Z,98418.75
2019-04-06T11:04:45.027Z,98414.22
2019-04-06T11:11:07.094Z,98405.42
2019-04-06T11:17:14.246Z,98397.53
2019-04-06T11:23:23.225Z,98395.73
2019-04-06T11:29:35.629Z,98388.13
2019-04-06T11:35:45.915Z,98380.48
2019-04-06T11:42:06.923Z,98371.91
2019-04-06T11:48:23.621Z,98363.61
2019-04-06T11:54:45.839Z,98360.42
2019-04-06T12:00:52.946Z,98366.08
2019-04-06T12:07:14.271Z,98362.08
2019-04-06T12:13:23.013Z,98353.70
2019-04-06T12:19:45.422Z,98346.00
2019-04-06T12:26:00.779Z,98339.79
2019-04-06T12:32:12.755Z,98334.66
2019-04-06T12:38:24.515Z,98318.38
2019-04-06T12:44:30.740Z,98323.50
2019-04-06T12:50:53.174Z,98315.45
2019-04-06T12:57:09.440Z,98297.75
2019-04-06T13:03:14.016Z,98307.67
2019-04-06T13:09:36.700Z,98298.74
2019-04-06T13:15:51.887Z,98302.00
2019-04-06T13:21:58.186Z,98308.86
2019-04-06T13:28:04.402Z,98306.25
2019-04-06T13:34:26.411Z,98296.09
2019-04-06T13:40:51.341Z,98292.81
2019-04-06T13:46:56.921Z,98288.39
2019-04-06T13:53:01.812Z,98292.06
2019-04-06T13:59:11.645Z,98280.89
2019-04-06T14:05:23.817Z,98274.55
2019-04-06T14:11:36.035Z,98268.05
2019-04-06T14:17:43.478Z,98266.13
2019-04-06T14:24:05.268Z,98267.01
2019-04-06T14:30:25.958Z,98262.36
2019-04-06T14:36:50.065Z,98264.59
2019-04-06T14:43:05.021Z,98262.96
2019-04-06T14:49:32.004Z,98254.84
2019-04-06T14:55:37.249Z,98248.70
2019-04-06T15:01:57.724Z,98249.44
2019-04-06T15:08:01.675Z,98242.39
2019-04-06T15:14:19.974Z,98249.83
2019-04-06T15:20:42.008Z,98246.41
2019-04-06T15:26:48.493Z,98245.25
2019-04-06T15:33:03.678Z,98243.90
2019-04-06T15:39:09.048Z,98245.16
2019-04-06T15:45:19.377Z,98244.02
2019-04-06T15:51:23.734Z,98233.22
2019-04-06T15:57:29.913Z,98228.38
2019-04-06T16:03:52.308Z,98224.48
2019-04-06T16:10:04.650Z,98228.36
2019-04-06T16:16:11.636Z,98230.73
2019-04-06T16:22:34.546Z,98217.83
2019-04-06T16:28:41.446Z,98225.33
2019-04-06T16:34:50.303Z,98229.33
2019-04-06T16:41:11.953Z,98229.53
2019-04-06T16:47:20.581Z,98237.48
2019-04-06T16:53:32.859Z,98238.23
2019-04-06T16:59:54.303Z,98234.55
2019-04-06T17:06:01.498Z,98242.84
2019-04-06T17:12:24.742Z,98240.87
2019-04-06T17:18:29.150Z,98237.11
2019-04-06T17:24:38.757Z,98245.12
2019-04-06T17:30:56.709Z,98247.40
2019-04-06T17:37:05.754Z,98260.35
2019-04-06T17:43:16.104Z,98260.70
2019-04-06T17:49:24.190Z,98265.14
2019-04-06T17:55:48.756Z,98272.34
2019-04-06T18:02:04.278Z,98272.39
2019-04-06T18:08:26.476Z,98275.58
2019-04-06T18:14:31.439Z,98279.98
2019-04-06T18:20:36.105Z,98279.84
2019-04-06T18:26:40.662Z,98287.56
2019-04-06T18:32:58.353Z,98293.31
2019-04-06T18:38:57.704Z,98290.19
2019-04-06T18:45:02.335Z,98303.16
2019-04-06T18:51:06.924Z,98296.15
2019-04-06T18:57:11.638Z,98294.20
2019-04-06T19:03:16.855Z,98291.49
2019-04-06T19:09:24.014Z,98296.09
2019-04-06T19:15:28.472Z,98292.75
2019-04-06T19:21:33.226Z,98296.67
2019-04-06T19:27:37.931Z,98290.91
2019-04-06T19:33:43.154Z,98294.03
2019-04-06T19:39:47.978Z,98289.30
2019-04-06T19:45:52.940Z,98282.91
2019-04-06T19:51:57.845Z,98288.16
2019-04-06T19:58:02.514Z,98283.36
2019-04-06T20:04:07.089Z,98283.64
2019-04-06T20:10:12.726Z,98280.30
2019-04-06T20:16:17.513Z,98274.28
2019-04-06T20:22:22.933Z,98279.30
2019-04-06T20:28:27.764Z,98265.22
2019-04-06T20:34:32.345Z,98261.59
2019-04-06T20:40:36.908Z,98263.22
2019-04-06T20:46:41.477Z,98263.70
2019-04-06T20:52:46.115Z,98257.89
2019-04-06T20:58:51.208Z,98257.28
2019-04-06T21:04:56.184Z,98256.00
2019-04-06T21:11:01.189Z,98260.94
2019-04-06T21:17:06.891Z,98256.08
2019-04-06T21:23:11.736Z,98256.77
2019-04-06T21:29:16.830Z,98258.37
2019-04-06T21:35:21.559Z,98253.05
2019-04-06T21:41:27.760Z,98252.30
2019-04-06T21:47:32.500Z,98246.30
2019-04-06T21:53:37.040Z,98249.32
2019-04-06T21:59:41.820Z,98249.42
2019-04-06T22:05:46.625Z,98262.34
2019-04-06T22:11:51.553Z,98266.58
2019-04-06T22:17:56.677Z,98268.41
2019-04-06T22:24:01.321Z,98275.62
2019-04-06T22:30:09.791Z,98271.03
2019-04-06T22:36:14.350Z,98267.47
2019-04-06T22:42:19.328Z,98267.48
2019-04-06T22:48:24.235Z,98264.76
2019-04-06T22:54:28.867Z,98264.75
2019-04-06T23:00:37.612Z,98262.47
2019-04-06T23:06:43.805Z,98268.60
2019-04-06T23:12:48.693Z,98271.09
2019-04-06T23:18:53.747Z,98272.31
2019-04-06T23:24:58.998Z,98267.11
2019-04-06T23:31:04.008Z,98271.98
2019-04-06T23:37:08.699Z,98279.94
2019-04-06T23:43:13.327Z,98282.80
2019-04-06T23:49:17.925Z,98294.38
2019-04-06T23:55:22.490Z,98292.95
